Time;durP1;ratioP1;P1;durP2;ratioP2;P2;SDS_P1;SDS_P2;PMS_P1;PMS_P2;Temp;Humidity;BMP_temperature;BMP_pressure;BME280_temperature;BME280_humidity;BME280_pressure;Samples;Min_cycle;Max_cycle;Signal;HPM_P1;HPM_P2
2023/03/03 00:01:38;;;;;;;54.73;26.60;;;1.60;99.90;;;;;;9502718;23;20718;-90
2023/03/03 00:05:27;;;;;;;58.63;28.23;;;1.50;99.90;;;;;;9503550;23;20588;-91
2023/03/03 00:09:12;;;;;;;55.50;27.30;;;1.50;99.90;;;;;;9504404;23;20163;-90
2023/03/03 00:12:59;;;;;;;64.30;27.97;;;1.50;99.90;;;;;;9503242;23;20190;-90
2023/03/03 00:16:46;;;;;;;57.93;27.60;;;1.50;99.90;;;;;;9503871;23;20582;-90
2023/03/03 00:20:38;;;;;;;53.33;27.17;;;1.50;99.90;;;;;;9504484;23;20160;-91
2023/03/03 00:24:37;;;;;;;57.40;26.87;;;1.40;99.90;;;;;;9537730;23;20200;-90
2023/03/03 00:28:31;;;;;;;63.03;27.87;;;1.40;99.90;;;;;;9516786;23;20168;-91
2023/03/03 00:32:22;;;;;;;65.90;28.70;;;1.40;99.90;;;;;;9504167;23;20259;-90
2023/03/03 00:36:14;;;;;;;60.43;27.70;;;1.40;99.90;;;;;;9504425;23;20180;-91
2023/03/03 00:40:17;;;;;;;59.50;28.57;;;1.30;99.90;;;;;;9504066;23;20164;-91
2023/03/03 00:44:29;;;;;;;48.93;24.53;;;1.40;99.90;;;;;;9504625;23;20235;-90
2023/03/03 00:48:34;;;;;;;47.63;24.33;;;1.30;99.90;;;;;;9479744;23;20160;-90
2023/03/03 00:52:20;;;;;;;49.43;25.10;;;1.20;99.90;;;;;;9482993;23;20180;-90
2023/03/03 00:56:06;;;;;;;48.07;24.23;;;1.30;99.90;;;;;;9505985;23;20653;-90
2023/03/03 00:59:51;;;;;;;49.53;24.63;;;1.20;99.90;;;;;;9503032;23;20188;-90
2023/03/03 01:03:37;;;;;;;50.10;24.47;;;1.20;99.90;;;;;;9503781;23;20180;-91
2023/03/03 01:07:23;;;;;;;47.37;23.53;;;1.20;99.90;;;;;;9497515;23;20179;-91
2023/03/03 01:11:20;;;;;;;47.43;24.67;;;1.10;99.90;;;;;;9503420;23;20164;-90
2023/03/03 01:15:08;;;;;;;46.60;23.10;;;1.10;99.90;;;;;;9505033;23;20246;-91
2023/03/03 01:18:54;;;;;;;45.90;23.57;;;0.90;99.90;;;;;;9501615;23;20271;-91
2023/03/03 01:22:40;;;;;;;48.37;24.93;;;0.90;99.90;;;;;;9503634;23;20184;-91
2023/03/03 01:26:25;;;;;;;48.20;23.30;;;0.90;99.90;;;;;;9502058;23;20187;-92
2023/03/03 01:30:24;;;;;;;50.17;24.37;;;0.80;99.90;;;;;;9501644;23;20171;-91
2023/03/03 01:34:10;;;;;;;51.03;24.43;;;0.70;99.90;;;;;;9501266;23;20190;-90
2023/03/03 01:37:56;;;;;;;50.07;24.87;;;0.70;99.90;;;;;;9502628;23;20259;-91
2023/03/03 01:41:42;;;;;;;54.50;26.67;;;0.80;99.90;;;;;;9478460;23;20156;-90
2023/03/03 01:45:30;;;;;;;52.10;25.60;;;0.70;99.90;;;;;;9478835;23;20222;-91
2023/03/03 01:49:30;;;;;;;57.03;27.10;;;0.80;99.90;;;;;;9501852;23;20166;-90
2023/03/03 01:53:25;;;;;;;69.50;26.03;;;0.80;99.90;;;;;;9478630;23;20672;-92
2023/03/03 01:57:18;;;;;;;60.20;25.63;;;0.80;99.90;;;;;;9502406;23;20701;-92
2023/03/03 02:01:08;;;;;;;65.53;25.50;;;0.70;99.90;;;;;;9502680;23;20151;-92
2023/03/03 02:04:54;;;;;;;54.30;25.20;;;0.70;99.90;;;;;;9502333;23;20213;-90
2023/03/03 02:08:58;;;;;;;55.87;24.50;;;0.70;99.90;;;;;;9503308;23;20168;-91
2023/03/03 02:12:53;;;;;;;48.47;24.73;;;0.70;99.90;;;;;;9502700;23;20631;-90
2023/03/03 02:16:40;;;;;;;74.00;24.10;;;0.70;99.90;;;;;;9502183;23;20530;-91
2023/03/03 02:20:34;;;;;;;49.50;22.37;;;0.70;99.90;;;;;;9502950;23;20792;-91
2023/03/03 02:24:32;;;;;;;49.17;24.73;;;0.50;99.90;;;;;;9533377;23;20202;-88
2023/03/03 02:28:18;;;;;;;48.67;23.47;;;0.50;99.90;;;;;;9516748;23;20163;-90
2023/03/03 02:32:04;;;;;;;50.73;23.97;;;0.60;99.90;;;;;;9502542;23;20180;-91
2023/03/03 02:35:50;;;;;;;52.60;25.17;;;0.60;99.90;;;;;;9501651;23;20554;-91
2023/03/03 02:39:36;;;;;;;49.73;23.87;;;0.50;99.90;;;;;;9501868;23;20164;-91
2023/03/03 02:43:25;;;;;;;48.70;23.33;;;0.50;99.90;;;;;;9501076;23;20231;-92
2023/03/03 02:47:11;;;;;;;48.80;23.80;;;0.60;99.90;;;;;;9501397;23;20218;-89
2023/03/03 02:50:57;;;;;;;51.10;23.80;;;0.70;99.90;;;;;;9501626;23;20218;-91
2023/03/03 02:54:42;;;;;;;51.60;23.73;;;0.50;99.90;;;;;;9501529;23;20208;-91
2023/03/03 02:58:28;;;;;;;55.87;24.13;;;0.40;99.90;;;;;;9501643;23;20184;-91
2023/03/03 03:02:13;;;;;;;59.37;25.13;;;0.30;99.90;;;;;;9503059;23;20172;-90
2023/03/03 03:05:59;;;;;;;55.33;25.20;;;0.30;99.90;;;;;;9501766;23;20238;-92
2023/03/03 03:09:45;;;;;;;52.37;23.80;;;0.30;99.90;;;;;;9503285;23;20152;-91
2023/03/03 03:13:31;;;;;;;54.50;26.23;;;0.40;99.90;;;;;;9502227;23;20231;-91
2023/03/03 03:17:17;;;;;;;53.77;23.87;;;0.40;99.90;;;;;;9501100;23;20665;-91
2023/03/03 03:21:11;;;;;;;52.53;25.03;;;0.30;99.90;;;;;;9504902;23;20491;-91
2023/03/03 03:24:56;;;;;;;52.27;24.67;;;0.30;99.90;;;;;;9503300;23;20206;-90
2023/03/03 03:28:42;;;;;;;52.27;23.90;;;0.30;99.90;;;;;;9517172;23;20242;-91
2023/03/03 03:32:28;;;;;;;59.13;25.57;;;0.30;99.90;;;;;;9509616;23;20180;-90
2023/03/03 03:36:15;;;;;;;55.20;25.13;;;0.30;99.90;;;;;;9501113;23;20761;-90
2023/03/03 03:40:01;;;;;;;60.00;25.63;;;0.30;99.90;;;;;;9502477;23;20152;-91
2023/03/03 03:43:46;;;;;;;58.03;25.80;;;0.20;99.90;;;;;;9477491;23;20184;-91
2023/03/03 03:47:32;;;;;;;60.40;25.30;;;0.30;99.90;;;;;;9500747;23;20156;-91
2023/03/03 03:51:18;;;;;;;59.17;25.33;;;0.30;99.90;;;;;;9501442;23;20251;-91
2023/03/03 03:55:04;;;;;;;54.07;24.43;;;0.20;99.90;;;;;;9500274;23;20184;-91
2023/03/03 03:58:50;;;;;;;49.60;22.17;;;0.30;99.90;;;;;;9500554;23;20184;-91
2023/03/03 04:02:36;;;;;;;52.50;23.23;;;0.30;99.90;;;;;;9500682;23;20176;-91
2023/03/03 04:06:21;;;;;;;49.60;21.83;;;0.30;99.90;;;;;;9500818;23;20527;-90
2023/03/03 04:10:08;;;;;;;51.07;22.47;;;0.20;99.90;;;;;;9499369;23;20174;-91
2023/03/03 04:13:54;;;;;;;47.60;21.53;;;0.20;99.90;;;;;;9501455;23;20632;-91
2023/03/03 04:17:40;;;;;;;47.00;21.70;;;0.20;99.90;;;;;;9500892;23;20669;-91
2023/03/03 04:21:26;;;;;;;50.20;22.67;;;0.20;99.90;;;;;;9500676;23;20232;-91
2023/03/03 04:25:15;;;;;;;48.60;21.43;;;0.20;99.90;;;;;;9543581;23;20188;-89
2023/03/03 04:29:02;;;;;;;43.00;20.30;;;0.10;99.90;;;;;;9504054;23;20184;-91
2023/03/03 04:32:48;;;;;;;41.13;19.77;;;0.10;99.90;;;;;;9500886;23;20191;-90
2023/03/03 04:36:34;;;;;;;43.53;20.53;;;-0.10;99.90;;;;;;9499722;23;20188;-90
2023/03/03 04:40:19;;;;;;;41.17;19.77;;;0.00;99.90;;;;;;9501287;23;20171;-91
2023/03/03 04:44:10;;;;;;;42.10;18.67;;;-0.10;99.90;;;;;;9499041;23;20187;-91
2023/03/03 04:47:57;;;;;;;39.60;18.83;;;0.00;99.90;;;;;;9501270;23;20206;-90
2023/03/03 04:51:44;;;;;;;40.23;19.57;;;0.10;99.90;;;;;;9502593;23;20543;-90
2023/03/03 04:55:36;;;;;;;38.10;19.23;;;0.10;99.90;;;;;;9503128;23;20239;-90
2023/03/03 04:59:22;;;;;;;39.33;18.63;;;0.00;99.90;;;;;;9503183;23;20144;-89
2023/03/03 05:03:10;;;;;;;42.87;18.70;;;0.00;99.90;;;;;;9502082;23;20276;-90
2023/03/03 05:06:56;;;;;;;47.80;19.33;;;-0.10;99.90;;;;;;9501145;23;20180;-90
2023/03/03 05:10:42;;;;;;;38.60;19.43;;;-0.20;99.90;;;;;;9502460;23;20171;-89
2023/03/03 05:14:28;;;;;;;46.53;21.57;;;-0.30;99.90;;;;;;9502339;23;20631;-90
2023/03/03 05:18:13;;;;;;;39.90;19.60;;;-0.20;99.90;;;;;;9502205;23;20180;-90
2023/03/03 05:21:59;;;;;;;36.07;17.97;;;-0.10;99.90;;;;;;9501796;23;20180;-90
2023/03/03 05:25:47;;;;;;;33.43;16.07;;;-0.20;99.90;;;;;;9500545;23;20184;-81
2023/03/03 05:29:32;;;;;;;31.77;15.47;;;-0.20;99.90;;;;;;9476707;23;20593;-88
2023/03/03 05:33:18;;;;;;;32.23;15.20;;;-0.10;99.90;;;;;;9503239;23;20619;-91
2023/03/03 05:37:05;;;;;;;35.17;16.53;;;-0.10;99.90;;;;;;9501675;23;20231;-90
2023/03/03 05:40:51;;;;;;;33.70;16.47;;;0.00;99.90;;;;;;9502850;23;20170;-91
2023/03/03 05:44:36;;;;;;;41.17;17.83;;;0.00;99.90;;;;;;9502700;23;20176;-90
2023/03/03 05:48:22;;;;;;;36.60;17.13;;;-0.20;99.90;;;;;;9502090;23;20164;-89
2023/03/03 05:52:08;;;;;;;42.53;17.00;;;-0.20;99.90;;;;;;9501974;23;20180;-91
2023/03/03 05:55:53;;;;;;;37.80;16.47;;;-0.20;99.90;;;;;;9502515;23;20532;-90
2023/03/03 05:59:39;;;;;;;38.47;16.63;;;-0.20;99.90;;;;;;9501801;23;20156;-91
2023/03/03 06:03:25;;;;;;;38.03;17.60;;;-0.30;99.90;;;;;;9505311;23;20617;-91
2023/03/03 06:07:10;;;;;;;40.43;17.37;;;-0.30;99.90;;;;;;9504469;23;20551;-90
2023/03/03 06:11:19;;;;;;;41.27;17.60;;;-0.30;99.90;;;;;;9506937;23;20368;-90
2023/03/03 06:15:06;;;;;;;39.77;16.97;;;-0.20;99.90;;;;;;9501834;23;20279;-90
2023/03/03 06:18:51;;;;;;;45.20;20.47;;;-0.20;99.90;;;;;;9501606;23;20183;-90
2023/03/03 06:22:37;;;;;;;60.23;15.33;;;-0.30;99.90;;;;;;9509955;23;20172;-88
2023/03/03 06:26:23;;;;;;;71.60;15.63;;;-0.30;99.90;;;;;;9542572;23;20255;-90
2023/03/03 06:30:09;;;;;;;46.57;15.50;;;-0.40;99.90;;;;;;9501125;23;20616;-90
2023/03/03 06:33:54;;;;;;;34.60;14.70;;;-0.60;99.90;;;;;;9502241;23;20503;-89
2023/03/03 06:37:40;;;;;;;58.47;16.90;;;-0.70;99.90;;;;;;9499970;23;20214;-89
2023/03/03 06:41:26;;;;;;;54.97;15.93;;;-0.70;99.90;;;;;;9500284;23;20299;-90
2023/03/03 06:45:12;;;;;;;86.57;18.27;;;-0.80;99.90;;;;;;9500366;23;20184;-90
2023/03/03 06:48:57;;;;;;;86.27;20.73;;;-0.80;99.90;;;;;;9500920;23;20172;-91
2023/03/03 06:52:43;;;;;;;49.47;19.30;;;-0.80;99.90;;;;;;9476221;23;20207;-90
2023/03/03 06:56:31;;;;;;;93.53;26.07;;;-0.80;99.90;;;;;;9499328;23;20180;-89
2023/03/03 07:00:23;;;;;;;52.80;20.63;;;-0.80;99.90;;;;;;9500428;23;20203;-91
2023/03/03 07:04:28;;;;;;;58.70;20.43;;;-0.60;99.90;;;;;;9500272;23;20235;-90
2023/03/03 07:08:20;;;;;;;44.53;17.43;;;-0.50;99.90;;;;;;9499833;23;20180;-90
2023/03/03 07:12:18;;;;;;;55.70;17.97;;;-0.60;99.90;;;;;;9501218;23;20179;-90
2023/03/03 07:16:10;;;;;;;44.50;18.27;;;-0.70;99.90;;;;;;9502757;23;20179;-90
2023/03/03 07:19:56;;;;;;;52.10;18.90;;;-0.70;99.90;;;;;;9499378;23;20156;-89
2023/03/03 07:23:43;;;;;;;47.80;19.43;;;-0.60;99.90;;;;;;9499301;23;20190;-90
2023/03/03 07:27:30;;;;;;;65.77;27.33;;;-0.60;99.90;;;;;;9498858;23;20211;-90
2023/03/03 07:31:34;;;;;;;63.43;24.60;;;-0.50;99.90;;;;;;9499502;23;20242;-90
2023/03/03 07:35:36;;;;;;;42.13;16.57;;;-0.60;99.90;;;;;;9499850;23;20184;-90
2023/03/03 07:39:34;;;;;;;54.13;24.33;;;-0.70;99.90;;;;;;9499435;23;20199;-89
2023/03/03 07:43:47;;;;;;;57.53;22.50;;;-0.60;99.90;;;;;;9500093;23;20179;-89
2023/03/03 07:47:36;;;;;;;59.73;26.00;;;-0.70;99.90;;;;;;9500992;23;20551;-89
2023/03/03 07:51:27;;;;;;;39.53;17.17;;;-0.60;99.90;;;;;;9476310;23;20188;-89
2023/03/03 07:55:24;;;;;;;38.07;15.17;;;-0.50;99.90;;;;;;9502750;23;20254;-89
2023/03/03 07:59:28;;;;;;;45.67;18.70;;;-0.40;99.90;;;;;;9475871;23;20179;-89
2023/03/03 08:03:18;;;;;;;42.13;16.43;;;-0.40;99.90;;;;;;9499316;23;20647;-89
2023/03/03 08:07:15;;;;;;;48.97;20.60;;;-0.40;99.90;;;;;;9499757;23;20612;-89
2023/03/03 08:11:01;;;;;;;35.73;14.43;;;0.00;99.90;;;;;;9500009;23;20159;-89
2023/03/03 08:14:50;;;;;;;36.07;15.20;;;-0.30;99.90;;;;;;9500456;23;20581;-88
2023/03/03 08:18:48;;;;;;;44.20;17.67;;;-0.30;99.90;;;;;;9500318;23;20526;-88
2023/03/03 08:22:34;;;;;;;39.13;16.90;;;-0.30;99.90;;;;;;9518577;23;20250;-89
2023/03/03 08:26:22;;;;;;;30.13;14.10;;;-0.30;99.90;;;;;;9543744;23;20184;-88
2023/03/03 08:30:08;;;;;;;33.50;14.40;;;-0.30;99.90;;;;;;9519353;23;20628;-88
2023/03/03 08:33:54;;;;;;;37.10;14.97;;;-0.30;99.90;;;;;;9503806;23;20204;-89
2023/03/03 08:37:40;;;;;;;38.93;17.10;;;-0.20;99.90;;;;;;9503219;23;20188;-87
2023/03/03 08:41:25;;;;;;;40.23;17.33;;;-0.20;99.90;;;;;;9503366;23;20680;-89
2023/03/03 08:45:11;;;;;;;38.77;16.40;;;-0.20;99.90;;;;;;9505136;23;20623;-86
2023/03/03 08:48:57;;;;;;;38.20;17.10;;;-0.20;99.90;;;;;;9501219;23;20171;-86
2023/03/03 08:52:43;;;;;;;45.80;20.90;;;-0.20;99.90;;;;;;9502468;23;20253;-89
2023/03/03 08:56:28;;;;;;;39.23;18.27;;;-0.20;99.90;;;;;;9505015;23;20235;-88
2023/03/03 09:00:16;;;;;;;37.83;16.33;;;-0.20;99.90;;;;;;9503860;23;20164;-88
2023/03/03 09:04:02;;;;;;;42.63;16.50;;;-0.20;99.90;;;;;;9479508;23;20180;-89
2023/03/03 09:07:47;;;;;;;32.83;14.60;;;-0.10;99.90;;;;;;9478790;23;20639;-89
2023/03/03 09:11:33;;;;;;;34.17;16.00;;;-0.10;99.90;;;;;;9503715;23;20184;-88
2023/03/03 09:15:24;;;;;;;41.87;19.70;;;-0.10;99.90;;;;;;9503326;23;20184;-89
2023/03/03 09:19:19;;;;;;;24.33;10.93;;;0.00;99.90;;;;;;9503791;23;20180;-90
2023/03/03 09:23:19;;;;;;;39.53;18.03;;;-0.20;99.90;;;;;;9503513;23;20186;-89
2023/03/03 09:27:33;;;;;;;29.83;11.60;;;-0.20;99.90;;;;;;9503759;23;20236;-83
2023/03/03 09:31:39;;;;;;;32.70;16.63;;;-0.20;99.90;;;;;;9504819;23;20155;-90
2023/03/03 09:35:39;;;;;;;20.03;8.87;;;-0.20;99.90;;;;;;9504887;23;20187;-89
2023/03/03 09:39:28;;;;;;;28.63;14.43;;;-0.20;99.90;;;;;;9505965;23;20243;-90
2023/03/03 09:43:29;;;;;;;22.00;10.80;;;-0.20;99.90;;;;;;9503146;23;20176;-88
2023/03/03 09:47:39;;;;;;;19.17;9.60;;;-0.30;99.90;;;;;;9501175;23;20156;-87
2023/03/03 09:51:51;;;;;;;17.67;7.83;;;-0.30;99.90;;;;;;9504101;23;20152;-88
2023/03/03 09:56:03;;;;;;;15.47;7.37;;;-0.30;99.90;;;;;;9501917;23;20192;-87
2023/03/03 10:00:00;;;;;;;15.03;7.10;;;-0.30;99.90;;;;;;9476978;23;20160;-86
2023/03/03 10:04:14;;;;;;;19.80;8.87;;;-0.20;99.90;;;;;;9503873;23;20167;-87
2023/03/03 10:08:15;;;;;;;17.60;8.70;;;-0.20;99.90;;;;;;9501595;23;20218;-85
2023/03/03 10:12:24;;;;;;;38.47;16.30;;;-0.20;99.90;;;;;;9501463;23;20570;-87
2023/03/03 10:16:22;;;;;;;31.77;13.77;;;-0.20;99.90;;;;;;9502104;23;20571;-88
2023/03/03 10:20:32;;;;;;;21.33;9.70;;;-0.20;99.90;;;;;;9500900;23;20560;-87
2023/03/03 10:24:44;;;;;;;17.37;8.63;;;-0.10;99.90;;;;;;9506773;23;20196;-87
2023/03/03 10:28:47;;;;;;;16.03;8.00;;;-0.10;99.90;;;;;;9502052;23;20144;-88
2023/03/03 10:32:48;;;;;;;16.40;7.80;;;-0.10;99.90;;;;;;9498346;23;20406;-87
2023/03/03 10:36:52;;;;;;;45.57;16.17;;;0.00;99.90;;;;;;9499019;23;20172;-87
2023/03/03 10:41:07;;;;;;;28.93;14.03;;;0.00;99.90;;;;;;9500141;23;20156;-88
2023/03/03 10:45:08;;;;;;;24.00;11.47;;;0.00;99.90;;;;;;9501636;23;20184;-89
2023/03/03 10:49:25;;;;;;;16.20;7.20;;;0.00;99.90;;;;;;9501860;23;20159;-89
2023/03/03 10:53:22;;;;;;;12.83;6.67;;;0.00;99.90;;;;;;9502186;23;20195;-90
2023/03/03 10:57:30;;;;;;;22.47;10.50;;;-0.10;99.90;;;;;;9501541;23;20709;-87
2023/03/03 11:01:58;;;;;;;30.37;16.17;;;-0.10;99.90;;;;;;9503188;23;20167;-90
2023/03/03 11:05:50;;;;;;;27.47;13.23;;;-0.10;99.90;;;;;;9501396;23;20251;-89
2023/03/03 11:09:57;;;;;;;30.13;12.20;;;-0.10;99.90;;;;;;9501214;23;20155;-87
2023/03/03 11:13:50;;;;;;;18.80;8.77;;;-0.20;99.90;;;;;;9502905;23;20168;-89
2023/03/03 11:18:02;;;;;;;25.50;12.27;;;-0.20;99.90;;;;;;9501635;23;20251;-87
2023/03/03 11:22:04;;;;;;;16.57;7.97;;;-0.10;99.90;;;;;;9467101;23;20164;-86
2023/03/03 11:26:06;;;;;;;17.57;8.47;;;0.00;99.90;;;;;;9500500;23;20210;-87
2023/03/03 11:30:17;;;;;;;16.90;8.60;;;-0.10;99.90;;;;;;9498985;23;20164;-88
2023/03/03 11:34:05;;;;;;;19.50;8.70;;;-0.10;99.90;;;;;;9501039;23;20552;-87
2023/03/03 11:38:10;;;;;;;18.47;9.90;;;-0.10;99.90;;;;;;9501852;23;20176;-87
2023/03/03 11:42:18;;;;;;;15.43;7.73;;;0.00;99.90;;;;;;9500573;23;20239;-88
2023/03/03 11:46:29;;;;;;;17.87;9.30;;;-0.10;99.90;;;;;;9477113;23;20191;-90
2023/03/03 11:50:21;;;;;;;15.80;9.63;;;0.00;99.90;;;;;;9503291;23;20133;-89
2023/03/03 11:54:29;;;;;;;14.63;7.80;;;0.00;99.90;;;;;;9502029;23;20180;-89
2023/03/03 11:58:37;;;;;;;21.60;10.40;;;0.00;99.90;;;;;;9504040;23;20175;-90
2023/03/03 12:02:42;;;;;;;20.13;9.07;;;0.00;99.90;;;;;;9504317;23;20576;-89
2023/03/03 12:06:52;;;;;;;17.73;9.00;;;0.00;99.90;;;;;;9506017;23;20199;-90
2023/03/03 12:11:07;;;;;;;15.67;7.50;;;0.00;99.90;;;;;;9504046;23;20191;-90
2023/03/03 12:15:19;;;;;;;11.13;6.43;;;0.00;99.90;;;;;;9504308;23;20183;-90
2023/03/03 12:19:26;;;;;;;10.27;5.73;;;0.00;99.90;;;;;;9479898;23;20176;-89
2023/03/03 12:23:15;;;;;;;10.83;5.70;;;0.00;99.90;;;;;;9523174;23;20179;-89
2023/03/03 12:27:17;;;;;;;11.87;5.63;;;0.00;99.90;;;;;;9532430;23;20243;-90
2023/03/03 12:31:40;;;;;;;16.57;8.77;;;0.10;99.90;;;;;;9504935;23;20159;-90
2023/03/03 12:35:26;;;;;;;17.37;8.07;;;0.10;99.90;;;;;;9504478;23;20214;-89
2023/03/03 12:39:26;;;;;;;13.13;6.47;;;0.10;99.90;;;;;;9503535;23;20191;-85
2023/03/03 12:43:15;;;;;;;13.53;5.83;;;0.10;99.90;;;;;;9501992;23;20235;-87
2023/03/03 12:47:37;;;;;;;15.10;6.67;;;0.10;99.90;;;;;;9501833;23;20164;-86
2023/03/03 12:51:28;;;;;;;13.23;6.33;;;0.10;99.90;;;;;;9502223;23;20202;-86
2023/03/03 12:55:38;;;;;;;17.67;6.33;;;0.10;99.90;;;;;;9503333;23;20231;-86
2023/03/03 12:59:56;;;;;;;14.47;6.40;;;0.00;99.90;;;;;;9476802;23;20223;-87
2023/03/03 13:04:15;;;;;;;15.23;5.93;;;0.10;99.90;;;;;;9505135;23;20179;-82
2023/03/03 13:08:22;;;;;;;11.90;4.57;;;0.10;99.90;;;;;;9477817;23;20210;-82
2023/03/03 13:12:18;;;;;;;12.47;5.83;;;0.70;99.90;;;;;;9505282;23;20184;-84
2023/03/03 13:16:19;;;;;;;10.03;5.13;;;1.20;99.90;;;;;;9503133;23;20615;-86
2023/03/03 13:20:19;;;;;;;13.63;6.17;;;1.40;99.90;;;;;;9503738;23;20152;-82
2023/03/03 13:24:22;;;;;;;13.50;7.87;;;1.50;99.90;;;;;;9503885;23;20179;-83
2023/03/03 13:28:54;;;;;;;12.90;6.20;;;1.50;99.90;;;;;;9511442;23;20667;-87
2023/03/03 13:33:09;;;;;;;10.10;5.73;;;1.40;99.90;;;;;;9502895;23;20310;-82
2023/03/03 13:37:04;;;;;;;10.03;5.30;;;1.50;99.90;;;;;;9472860;23;20251;-84
2023/03/03 13:41:02;;;;;;;10.37;5.07;;;1.50;99.90;;;;;;9507960;23;20136;-87
2023/03/03 13:44:50;;;;;;;10.57;5.40;;;1.40;99.90;;;;;;9506263;23;20180;-85
2023/03/03 13:48:54;;;;;;;10.97;4.77;;;1.30;99.90;;;;;;9505705;23;20307;-85
2023/03/03 13:53:24;;;;;;;14.37;7.47;;;1.40;99.90;;;;;;9508719;23;20171;-85
2023/03/03 13:57:32;;;;;;;18.73;8.77;;;1.40;99.90;;;;;;9505831;23;20180;-85
2023/03/03 14:02:00;;;;;;;15.50;9.00;;;1.40;99.90;;;;;;9511359;23;20141;-85
2023/03/03 14:05:51;;;;;;;17.97;9.07;;;1.30;99.90;;;;;;9411894;23;20177;-83
2023/03/03 14:09:44;;;;;;;17.40;7.83;;;1.20;99.90;;;;;;9386864;23;20179;-81
2023/03/03 14:13:53;;;;;;;14.97;6.73;;;1.30;99.90;;;;;;9411110;23;20234;-83
2023/03/03 14:17:56;;;;;;;15.67;7.20;;;1.30;99.90;;;;;;9385560;23;20177;-86
2023/03/03 14:21:55;;;;;;;15.87;7.87;;;1.30;99.90;;;;;;9410167;23;20549;-84
2023/03/03 14:26:12;;;;;;;16.83;7.40;;;1.30;99.90;;;;;;9428198;23;20177;-85
2023/03/03 14:29:58;;;;;;;25.03;11.00;;;1.40;99.90;;;;;;9382560;23;20185;-85
2023/03/03 14:33:56;;;;;;;23.97;9.30;;;1.40;99.90;;;;;;9384153;23;20185;-87
2023/03/03 14:37:44;;;;;;;15.73;7.87;;;1.40;99.90;;;;;;9395275;23;20639;-86
2023/03/03 14:41:58;;;;;;;26.27;11.40;;;1.40;99.90;;;;;;9501519;23;20502;-85
2023/03/03 14:45:43;;;;;;;15.33;8.00;;;1.40;99.90;;;;;;9496969;23;20160;-85
2023/03/03 14:49:32;;;;;;;13.80;6.90;;;1.30;99.90;;;;;;9497453;23;20589;-84
2023/03/03 14:53:18;;;;;;;13.13;6.87;;;1.20;99.90;;;;;;9474357;23;20187;-86
2023/03/03 14:57:15;;;;;;;16.97;8.17;;;1.30;99.90;;;;;;9497816;23;20184;-86
2023/03/03 15:01:22;;;;;;;22.80;11.50;;;1.30;99.90;;;;;;9498682;23;20172;-85
2023/03/03 15:05:24;;;;;;;29.57;14.00;;;1.30;99.90;;;;;;9498117;23;20204;-85
2023/03/03 15:09:44;;;;;;;13.80;7.67;;;1.40;99.90;;;;;;9498730;23;20156;-87
2023/03/03 15:13:34;;;;;;;16.77;7.53;;;1.30;99.90;;;;;;9499916;23;20222;-87
2023/03/03 15:17:22;;;;;;;18.63;7.27;;;1.20;99.90;;;;;;9497994;23;20191;-85
2023/03/03 15:21:20;;;;;;;16.53;7.83;;;1.20;99.90;;;;;;9497776;23;20167;-85
2023/03/03 15:25:11;;;;;;;21.30;8.63;;;1.20;99.90;;;;;;9499503;23;20171;-85
2023/03/03 15:29:15;;;;;;;15.57;8.33;;;1.20;99.90;;;;;;9499321;23;20152;-85
2023/03/03 15:33:19;;;;;;;16.33;8.93;;;1.30;99.90;;;;;;9498537;23;20184;-85
2023/03/03 15:37:32;;;;;;;15.13;7.90;;;1.20;99.90;;;;;;9496919;23;20180;-85
2023/03/03 15:41:44;;;;;;;16.27;7.23;;;1.20;99.90;;;;;;9498044;23;20184;-85
2023/03/03 15:45:49;;;;;;;15.80;7.20;;;1.20;99.90;;;;;;9499750;23;20171;-85
2023/03/03 15:50:13;;;;;;;13.10;6.60;;;1.20;99.90;;;;;;9498657;23;20152;-86
2023/03/03 15:54:24;;;;;;;14.03;8.00;;;1.10;99.90;;;;;;9459049;23;20191;-86
2023/03/03 15:58:15;;;;;;;16.73;7.57;;;1.10;99.90;;;;;;9473831;23;20184;-84
2023/03/03 16:02:21;;;;;;;15.47;7.20;;;1.10;99.90;;;;;;9498095;23;20180;-86
2023/03/03 16:06:15;;;;;;;16.13;7.43;;;1.20;99.90;;;;;;9498557;23;20512;-86
2023/03/03 16:10:10;;;;;;;15.70;8.00;;;1.20;99.90;;;;;;9473722;23;20155;-86
2023/03/03 16:14:17;;;;;;;16.20;7.53;;;1.20;99.90;;;;;;9499584;23;20639;-85
2023/03/03 16:18:14;;;;;;;14.47;7.07;;;1.20;99.90;;;;;;9499385;23;20654;-86
2023/03/03 16:22:08;;;;;;;15.53;7.40;;;1.20;99.90;;;;;;9515967;23;20536;-83
2023/03/03 16:25:57;;;;;;;16.03;8.33;;;1.20;99.90;;;;;;9528036;23;20263;-85
2023/03/03 16:30:22;;;;;;;18.87;8.50;;;1.10;99.90;;;;;;9498152;23;20187;-87
2023/03/03 16:34:24;;;;;;;20.47;8.77;;;1.00;99.90;;;;;;9500654;23;20698;-83
2023/03/03 16:38:17;;;;;;;24.43;9.73;;;1.00;99.90;;;;;;9503276;23;20179;-84
2023/03/03 16:42:20;;;;;;;23.23;11.63;;;1.00;99.90;;;;;;9502115;23;20172;-85
2023/03/03 16:46:43;;;;;;;27.23;11.97;;;1.10;99.90;;;;;;9504716;23;20179;-85
2023/03/03 16:50:53;;;;;;;26.03;10.97;;;1.10;99.90;;;;;;9408425;23;20673;-84
2023/03/03 16:55:01;;;;;;;21.30;9.63;;;1.10;99.90;;;;;;9384585;23;20181;-84
2023/03/03 16:59:10;;;;;;;30.37;12.93;;;1.10;99.90;;;;;;9384314;23;20196;-84
2023/03/03 17:03:30;;;;;;;28.57;12.57;;;1.10;99.90;;;;;;9409012;23;20185;-84
2023/03/03 17:07:35;;;;;;;31.60;13.03;;;1.00;99.90;;;;;;9381066;23;20205;-85
2023/03/03 17:11:46;;;;;;;31.77;13.83;;;0.90;99.90;;;;;;9407810;23;20244;-85
2023/03/03 17:15:44;;;;;;;36.30;14.27;;;1.00;99.90;;;;;;9381418;23;20181;-85
2023/03/03 17:20:07;;;;;;;38.17;13.73;;;0.80;99.90;;;;;;9382127;23;20180;-84
2023/03/03 17:24:05;;;;;;;33.70;14.33;;;0.90;99.90;;;;;;9433209;23;20183;-85
2023/03/03 17:27:56;;;;;;;32.57;13.37;;;0.80;99.90;;;;;;9502393;23;20139;-84
2023/03/03 17:32:07;;;;;;;34.60;13.37;;;0.80;99.90;;;;;;9500475;23;20626;-85
2023/03/03 17:36:08;;;;;;;32.60;13.87;;;0.70;99.90;;;;;;9502391;23;20192;-84
2023/03/03 17:40:11;;;;;;;41.13;16.83;;;0.80;99.90;;;;;;9501635;23;20836;-85
2023/03/03 17:44:03;;;;;;;41.03;16.50;;;0.80;99.90;;;;;;9502237;23;20180;-85
2023/03/03 17:47:54;;;;;;;39.90;14.80;;;0.80;99.90;;;;;;9503612;23;20160;-83
2023/03/03 17:52:07;;;;;;;82.23;33.77;;;0.80;99.90;;;;;;9501997;23;20178;-85
2023/03/03 17:56:05;;;;;;;40.47;14.70;;;0.80;99.90;;;;;;9502585;23;20599;-84
2023/03/03 18:00:29;;;;;;;43.45;21.83;;;0.80;99.90;;;;;;9499307;23;20386;-84
2023/03/03 18:04:27;;;;;;;39.30;15.70;;;1.00;99.90;;;;;;9503050;23;20243;-84
2023/03/03 18:08:37;;;;;;;48.23;19.20;;;1.00;99.90;;;;;;9500030;23;20201;-84
2023/03/03 18:12:35;;;;;;;35.70;15.33;;;1.00;99.90;;;;;;9476062;23;20245;-84
2023/03/03 18:16:38;;;;;;;47.20;17.97;;;0.90;99.90;;;;;;9499507;23;20175;-87
2023/03/03 18:20:45;;;;;;;43.73;18.00;;;0.90;99.90;;;;;;9506626;23;20480;-85
2023/03/03 18:29:08;;;;;;;47.13;17.63;;;0.80;99.90;;;;;;9508480;23;20149;-85
2023/03/03 18:33:00;;;;;;;41.80;18.27;;;0.70;99.90;;;;;;9501595;23;20572;-84
2023/03/03 18:36:54;;;;;;;46.40;19.17;;;0.70;99.90;;;;;;9502241;23;20183;-85
2023/03/03 18:40:49;;;;;;;47.73;18.87;;;0.70;99.90;;;;;;9501741;23;20619;-85
2023/03/03 18:44:35;;;;;;;48.87;20.87;;;0.70;99.90;;;;;;9501761;23;20562;-86
2023/03/03 18:49:03;;;;;;;54.17;21.80;;;0.70;99.90;;;;;;9503525;23;20143;-85
2023/03/03 18:53:22;;;;;;;55.67;19.43;;;0.70;99.90;;;;;;9465831;23;20195;-85
2023/03/03 18:57:15;;;;;;;50.80;19.13;;;0.70;99.90;;;;;;9502683;23;20211;-86
2023/03/03 19:01:09;;;;;;;49.20;19.10;;;0.60;99.90;;;;;;9502324;23;20607;-84
2023/03/03 19:05:10;;;;;;;53.47;20.07;;;0.60;99.90;;;;;;9501882;23;20188;-84
2023/03/03 19:08:57;;;;;;;49.90;19.57;;;0.60;99.90;;;;;;9501611;23;20698;-86
2023/03/03 19:12:58;;;;;;;52.87;21.63;;;0.60;99.90;;;;;;9502976;23;20184;-84
2023/03/03 19:16:44;;;;;;;60.17;20.70;;;0.60;99.90;;;;;;9499797;23;20239;-83
2023/03/03 19:20:40;;;;;;;59.23;21.27;;;0.60;99.90;;;;;;9498594;23;20242;-84
2023/03/03 19:24:32;;;;;;;56.67;20.87;;;0.60;99.90;;;;;;9498834;23;20179;-84
2023/03/03 19:28:45;;;;;;;52.90;20.07;;;0.50;99.90;;;;;;9499590;23;20140;-83
2023/03/03 19:32:58;;;;;;;51.57;20.27;;;0.50;99.90;;;;;;9500124;23;20179;-83
2023/03/03 19:36:53;;;;;;;51.87;20.57;;;0.50;99.90;;;;;;9497969;23;20184;-85
2023/03/03 19:40:42;;;;;;;54.00;20.37;;;0.60;99.90;;;;;;9498597;23;20243;-84
2023/03/03 19:44:44;;;;;;;52.90;19.90;;;0.60;99.90;;;;;;9497866;23;20184;-84
2023/03/03 19:49:08;;;;;;;54.03;20.10;;;0.60;99.90;;;;;;9498864;23;20540;-84
2023/03/03 19:53:05;;;;;;;51.73;19.97;;;0.60;99.90;;;;;;9405117;23;20263;-84
2023/03/03 19:56:57;;;;;;;53.73;20.90;;;0.60;99.90;;;;;;9405045;23;20271;-84
2023/03/03 20:00:53;;;;;;;49.97;19.20;;;0.60;99.90;;;;;;9381733;23;20590;-84
2023/03/03 20:05:08;;;;;;;52.97;18.70;;;0.60;99.90;;;;;;9382382;23;20216;-83
2023/03/03 20:09:01;;;;;;;49.53;18.50;;;0.60;99.90;;;;;;9405906;23;20208;-83
2023/03/03 20:12:46;;;;;;;48.37;17.80;;;0.60;99.90;;;;;;9380638;23;20185;-84
2023/03/03 20:16:39;;;;;;;45.90;17.40;;;0.60;99.90;;;;;;9380155;23;20185;-84